Aviation

Metar/Speci

station

VRMH

METAR VRMH 162100Z 07007KT 9999 FEW018 28/24 Q1011=

30 minutes ago

VRMM

METAR VRMM 162100Z 06010KT 9999 FEW018 28/24 Q1011 NOSIG=

26 minutes ago

VRMK

METAR VRMK 162100Z VRB02KT 9999 FEW018TCU BKN260 27/25 Q1011=

26 minutes ago

VRMT

METAR VRMT 162100Z 00000KT 9999 FEW018TCU BKN250 26/25 Q1011=

30 minutes ago

VRMG

METAR VRMG 162100Z VRB02KT 9000 SCT017TCU BKN110 25/24 Q1011 TEMPO 5000 TSRA FEW017CB=

30 minutes ago

Synop

station

43533

AAXX 16214 43533 42465 20707 10277 20238 30117 40119 82201 333 58012 82818=

30 minutes ago

43555

AAXX 16214 43555 42465 20710 10284 20243 30111 40113 82200 333 58013 82818=

26 minutes ago

43577

AAXX 16214 43577 42464 79902 10268 20250 30110 40112 82248 333 58013 82818 87276=

26 minutes ago

43588

AAXX 16214 43588 42460 70000 10257 20245 30113 40114 82238 333 58019 82818 87275=

30 minutes ago

43599

AAXX 16214 43599 42459 79902 10251 20244 30108 40110 83252 333 58016 83817 85361=

30 minutes ago

Tafs

station

VRMH

VRMH 161700Z 1618/1724 06010KT 9999 FEW018 TEMPO 1618/1624 FEW018CB=

4 hours ago

VRMM

VRMM 161700Z 1618/1724 07013KT 9999 FEW018 TEMPO 1618/1624 FEW018CB=

4 hours ago

VRMK

VRMK 161700Z 1618/1718 02006KT 9999 FEW018TCU TEMPO 1621/1703 5000 TSRA FEW018CB=

4 hours ago

VRMT

VRMT 161700Z 1618/1718 23011KT 9999 FEW018TCU SCT120 TEMPO 1618/1624 4000 TSRA FEW017CB=

4 hours ago

VRMG

VRMG 161700Z 1618/1724 27013KT 9999 FEW018TCU SCT120 TEMPO 1618/1624 4000 TSRA FEW017CB=

4 hours ago

Sigmet

VRMM

VRMF SIGMET 2 VALID 161400/161800 VRMM- VRMF MALE FIR EMBD TS FCST WI S0021 E06819-N0106 E07038-N0051 E07449-S0246 E07528-S0539 E07448-S0508 E06838-S0021 E06819 TOP FL400 STNR INTSF=

7 hours ago

Flight folders

No flight folder available at the moment.